sensor_id;sensor_type;location;lat;lon;timestamp;temperature;humidity
56240;DHT22;42154;51.992;5.896;2023-01-15T00:01:22;8.50;99.90
56240;DHT22;42154;51.992;5.896;2023-01-15T00:03:48;8.50;99.90
56240;DHT22;42154;51.992;5.896;2023-01-15T00:06:15;8.50;99.90
56240;DHT22;42154;51.992;5.896;2023-01-15T00:08:41;8.50;99.90
56240;DHT22;42154;51.992;5.896;2023-01-15T00:11:07;8.50;99.90
56240;DHT22;42154;51.992;5.896;2023-01-15T00:13:33;8.50;99.90
56240;DHT22;42154;51.992;5.896;2023-01-15T00:16:08;8.50;99.90
56240;DHT22;42154;51.992;5.896;2023-01-15T00:18:34;8.60;99.90
56240;DHT22;42154;51.992;5.896;2023-01-15T00:21:02;8.50;99.90
56240;DHT22;42154;51.992;5.896;2023-01-15T00:23:29;8.50;99.90
56240;DHT22;42154;51.992;5.896;2023-01-15T00:26:18;8.50;99.90
56240;DHT22;42154;51.992;5.896;2023-01-15T00:29:03;8.50;99.90
56240;DHT22;42154;51.992;5.896;2023-01-15T00:31:31;8.50;99.90
56240;DHT22;42154;51.992;5.896;2023-01-15T00:33:57;8.50;99.90
56240;DHT22;42154;51.992;5.896;2023-01-15T00:36:23;8.50;99.90
56240;DHT22;42154;51.992;5.896;2023-01-15T00:38:50;8.50;99.90
56240;DHT22;42154;51.992;5.896;2023-01-15T00:41:16;8.50;99.90
56240;DHT22;42154;51.992;5.896;2023-01-15T00:43:42;8.40;99.90
56240;DHT22;42154;51.992;5.896;2023-01-15T00:46:07;8.40;99.90
56240;DHT22;42154;51.992;5.896;2023-01-15T00:48:34;8.40;99.90
56240;DHT22;42154;51.992;5.896;2023-01-15T00:51:00;8.30;99.90
56240;DHT22;42154;51.992;5.896;2023-01-15T00:53:26;8.30;99.90
56240;DHT22;42154;51.992;5.896;2023-01-15T00:55:52;8.30;99.90
56240;DHT22;42154;51.992;5.896;2023-01-15T00:58:18;8.30;99.90
56240;DHT22;42154;51.992;5.896;2023-01-15T01:00:43;8.30;99.90
56240;DHT22;42154;51.992;5.896;2023-01-15T01:03:09;8.30;99.90
56240;DHT22;42154;51.992;5.896;2023-01-15T01:05:37;8.40;99.90
56240;DHT22;42154;51.992;5.896;2023-01-15T01:08:03;8.30;99.90
56240;DHT22;42154;51.992;5.896;2023-01-15T01:10:29;8.30;99.90
56240;DHT22;42154;51.992;5.896;2023-01-15T01:12:55;8.30;99.90
56240;DHT22;42154;51.992;5.896;2023-01-15T01:15:22;8.30;99.90
56240;DHT22;42154;51.992;5.896;2023-01-15T01:17:48;8.30;99.90
56240;DHT22;42154;51.992;5.896;2023-01-15T01:20:15;8.20;99.90
56240;DHT22;42154;51.992;5.896;2023-01-15T01:22:41;8.20;99.90
56240;DHT22;42154;51.992;5.896;2023-01-15T01:25:08;8.20;99.90
56240;DHT22;42154;51.992;5.896;2023-01-15T01:27:35;8.20;99.90
56240;DHT22;42154;51.992;5.896;2023-01-15T01:30:01;8.20;99.90
56240;DHT22;42154;51.992;5.896;2023-01-15T01:32:27;8.20;99.90
56240;DHT22;42154;51.992;5.896;2023-01-15T01:34:55;8.20;99.90
56240;DHT22;42154;51.992;5.896;2023-01-15T01:37:21;8.20;99.90
56240;DHT22;42154;51.992;5.896;2023-01-15T01:39:46;8.20;99.90
56240;DHT22;42154;51.992;5.896;2023-01-15T01:42:14;8.10;99.90
56240;DHT22;42154;51.992;5.896;2023-01-15T01:47:14;8.10;99.90
56240;DHT22;42154;51.992;5.896;2023-01-15T01:49:40;8.10;99.90
56240;DHT22;42154;51.992;5.896;2023-01-15T01:52:12;8.00;99.90
56240;DHT22;42154;51.992;5.896;2023-01-15T01:54:40;8.00;99.90
56240;DHT22;42154;51.992;5.896;2023-01-15T01:57:07;8.00;99.90
56240;DHT22;42154;51.992;5.896;2023-01-15T01:59:34;8.00;99.90
56240;DHT22;42154;51.992;5.896;2023-01-15T02:02:02;8.00;99.90
56240;DHT22;42154;51.992;5.896;2023-01-15T02:04:28;8.00;99.90
56240;DHT22;42154;51.992;5.896;2023-01-15T02:06:56;7.90;99.90
56240;DHT22;42154;51.992;5.896;2023-01-15T02:09:23;8.00;99.90
56240;DHT22;42154;51.992;5.896;2023-01-15T02:11:50;8.00;99.90
56240;DHT22;42154;51.992;5.896;2023-01-15T02:14:30;7.90;99.90
56240;DHT22;42154;51.992;5.896;2023-01-15T02:17:06;7.90;99.90
56240;DHT22;42154;51.992;5.896;2023-01-15T02:28:24;7.90;99.90
56240;DHT22;42154;51.992;5.896;2023-01-15T02:31:08;7.80;99.90
56240;DHT22;42154;51.992;5.896;2023-01-15T02:33:39;7.80;99.90
56240;DHT22;42154;51.992;5.896;2023-01-15T02:36:10;7.80;99.90
56240;DHT22;42154;51.992;5.896;2023-01-15T02:38:44;7.80;99.90
56240;DHT22;42154;51.992;5.896;2023-01-15T02:41:13;7.80;99.90
56240;DHT22;42154;51.992;5.896;2023-01-15T02:43:49;7.70;99.90
56240;DHT22;42154;51.992;5.896;2023-01-15T02:46:17;7.70;99.90
56240;DHT22;42154;51.992;5.896;2023-01-15T02:48:46;7.60;99.90
56240;DHT22;42154;51.992;5.896;2023-01-15T02:51:18;7.60;99.90
56240;DHT22;42154;51.992;5.896;2023-01-15T02:53:47;7.60;99.90
56240;DHT22;42154;51.992;5.896;2023-01-15T02:56:18;7.60;99.90
56240;DHT22;42154;51.992;5.896;2023-01-15T02:58:52;7.60;99.90
56240;DHT22;42154;51.992;5.896;2023-01-15T03:01:23;7.60;99.90
56240;DHT22;42154;51.992;5.896;2023-01-15T03:06:53;7.60;99.90
56240;DHT22;42154;51.992;5.896;2023-01-15T03:09:21;7.60;99.90
56240;DHT22;42154;51.992;5.896;2023-01-15T03:12:05;7.50;99.90
56240;DHT22;42154;51.992;5.896;2023-01-15T03:17:23;7.50;99.90
56240;DHT22;42154;51.992;5.896;2023-01-15T03:20:02;7.50;99.90
56240;DHT22;42154;51.992;5.896;2023-01-15T03:22:33;7.50;99.90
56240;DHT22;42154;51.992;5.896;2023-01-15T03:25:03;7.50;99.90
56240;DHT22;42154;51.992;5.896;2023-01-15T03:27:38;7.50;99.90
56240;DHT22;42154;51.992;5.896;2023-01-15T03:30:08;7.40;99.90
56240;DHT22;42154;51.992;5.896;2023-01-15T03:32:34;7.40;99.90
56240;DHT22;42154;51.992;5.896;2023-01-15T03:35:06;7.40;99.90
56240;DHT22;42154;51.992;5.896;2023-01-15T03:37:32;7.40;99.90
56240;DHT22;42154;51.992;5.896;2023-01-15T03:39:58;7.40;99.90
56240;DHT22;42154;51.992;5.896;2023-01-15T03:45:16;7.40;99.90
56240;DHT22;42154;51.992;5.896;2023-01-15T03:50:19;7.40;99.90
56240;DHT22;42154;51.992;5.896;2023-01-15T03:55:38;7.40;99.90
56240;DHT22;42154;51.992;5.896;2023-01-15T03:58:19;7.40;99.90
56240;DHT22;42154;51.992;5.896;2023-01-15T04:00:52;7.30;99.90
56240;DHT22;42154;51.992;5.896;2023-01-15T04:03:21;7.30;99.90
56240;DHT22;42154;51.992;5.896;2023-01-15T04:05:50;7.30;99.90
56240;DHT22;42154;51.992;5.896;2023-01-15T04:08:18;7.30;99.90
56240;DHT22;42154;51.992;5.896;2023-01-15T04:10:54;7.30;99.90
56240;DHT22;42154;51.992;5.896;2023-01-15T04:13:22;7.30;99.90
56240;DHT22;42154;51.992;5.896;2023-01-15T04:15:48;7.30;99.90
56240;DHT22;42154;51.992;5.896;2023-01-15T04:18:17;7.30;99.90
56240;DHT22;42154;51.992;5.896;2023-01-15T04:20:43;7.30;99.90
56240;DHT22;42154;51.992;5.896;2023-01-15T04:23:10;7.30;99.90
56240;DHT22;42154;51.992;5.896;2023-01-15T04:25:36;7.30;99.90
56240;DHT22;42154;51.992;5.896;2023-01-15T04:28:02;7.30;99.90
56240;DHT22;42154;51.992;5.896;2023-01-15T04:30:28;7.20;99.90
56240;DHT22;42154;51.992;5.896;2023-01-15T04:32:54;7.20;99.90
56240;DHT22;42154;51.992;5.896;2023-01-15T04:35:20;7.20;99.90
56240;DHT22;42154;51.992;5.896;2023-01-15T04:37:46;7.20;99.90
56240;DHT22;42154;51.992;5.896;2023-01-15T04:40:12;7.20;99.90
56240;DHT22;42154;51.992;5.896;2023-01-15T04:42:58;7.10;99.90
56240;DHT22;42154;51.992;5.896;2023-01-15T04:45:44;7.10;99.90
56240;DHT22;42154;51.992;5.896;2023-01-15T04:48:11;7.20;99.90
56240;DHT22;42154;51.992;5.896;2023-01-15T04:50:37;7.10;99.90
56240;DHT22;42154;51.992;5.896;2023-01-15T04:53:03;7.10;99.90
56240;DHT22;42154;51.992;5.896;2023-01-15T04:55:29;7.10;99.90
56240;DHT22;42154;51.992;5.896;2023-01-15T04:57:55;7.10;99.90
56240;DHT22;42154;51.992;5.896;2023-01-15T05:00:21;7.00;99.90
56240;DHT22;42154;51.992;5.896;2023-01-15T05:02:48;7.00;99.90
56240;DHT22;42154;51.992;5.896;2023-01-15T05:05:14;7.00;99.90
56240;DHT22;42154;51.992;5.896;2023-01-15T05:07:40;7.00;99.90
56240;DHT22;42154;51.992;5.896;2023-01-15T05:10:06;7.00;99.90
56240;DHT22;42154;51.992;5.896;2023-01-15T05:12:31;7.00;99.90
56240;DHT22;42154;51.992;5.896;2023-01-15T05:14:57;7.00;99.90
56240;DHT22;42154;51.992;5.896;2023-01-15T05:17:23;7.00;99.90
56240;DHT22;42154;51.992;5.896;2023-01-15T05:19:49;7.00;99.90
56240;DHT22;42154;51.992;5.896;2023-01-15T05:22:14;7.00;99.90
56240;DHT22;42154;51.992;5.896;2023-01-15T05:24:40;7.10;99.90
56240;DHT22;42154;51.992;5.896;2023-01-15T05:27:06;7.10;99.90
56240;DHT22;42154;51.992;5.896;2023-01-15T05:29:32;7.10;99.90
56240;DHT22;42154;51.992;5.896;2023-01-15T05:31:58;7.10;99.90
56240;DHT22;42154;51.992;5.896;2023-01-15T05:34:23;7.10;99.90
56240;DHT22;42154;51.992;5.896;2023-01-15T05:36:50;7.00;99.90
56240;DHT22;42154;51.992;5.896;2023-01-15T05:39:16;7.00;99.90
56240;DHT22;42154;51.992;5.896;2023-01-15T05:41:42;6.90;99.90
56240;DHT22;42154;51.992;5.896;2023-01-15T05:44:19;6.90;99.90
56240;DHT22;42154;51.992;5.896;2023-01-15T05:46:46;6.90;99.90
56240;DHT22;42154;51.992;5.896;2023-01-15T05:49:18;7.00;99.90
56240;DHT22;42154;51.992;5.896;2023-01-15T05:51:44;7.00;99.90
56240;DHT22;42154;51.992;5.896;2023-01-15T05:54:14;7.00;99.90
56240;DHT22;42154;51.992;5.896;2023-01-15T05:56:40;7.00;99.90
56240;DHT22;42154;51.992;5.896;2023-01-15T05:59:07;6.90;99.90
56240;DHT22;42154;51.992;5.896;2023-01-15T06:01:34;6.90;99.90
56240;DHT22;42154;51.992;5.896;2023-01-15T06:04:01;6.90;99.90
56240;DHT22;42154;51.992;5.896;2023-01-15T06:06:28;6.90;99.90
56240;DHT22;42154;51.992;5.896;2023-01-15T06:08:54;6.90;99.90
56240;DHT22;42154;51.992;5.896;2023-01-15T06:11:19;6.90;99.90
56240;DHT22;42154;51.992;5.896;2023-01-15T06:13:45;6.90;99.90
56240;DHT22;42154;51.992;5.896;2023-01-15T06:16:11;6.80;99.90
56240;DHT22;42154;51.992;5.896;2023-01-15T06:18:38;6.80;99.90
56240;DHT22;42154;51.992;5.896;2023-01-15T06:21:06;6.80;99.90
56240;DHT22;42154;51.992;5.896;2023-01-15T06:23:33;6.90;99.90
56240;DHT22;42154;51.992;5.896;2023-01-15T06:26:03;6.80;99.90
56240;DHT22;42154;51.992;5.896;2023-01-15T06:28:29;6.80;99.90
56240;DHT22;42154;51.992;5.896;2023-01-15T06:30:55;6.70;99.90
56240;DHT22;42154;51.992;5.896;2023-01-15T06:33:21;6.70;99.90
56240;DHT22;42154;51.992;5.896;2023-01-15T06:35:46;6.60;99.90
56240;DHT22;42154;51.992;5.896;2023-01-15T06:38:12;6.60;99.90
56240;DHT22;42154;51.992;5.896;2023-01-15T06:40:38;6.60;99.90
56240;DHT22;42154;51.992;5.896;2023-01-15T06:43:04;6.60;99.90
56240;DHT22;42154;51.992;5.896;2023-01-15T06:45:48;6.50;99.90
56240;DHT22;42154;51.992;5.896;2023-01-15T06:48:32;6.50;99.90
56240;DHT22;42154;51.992;5.896;2023-01-15T06:50:58;6.50;99.90
56240;DHT22;42154;51.992;5.896;2023-01-15T06:53:24;6.60;99.90
56240;DHT22;42154;51.992;5.896;2023-01-15T06:55:50;6.70;99.90
56240;DHT22;42154;51.992;5.896;2023-01-15T06:58:15;6.70;99.90
56240;DHT22;42154;51.992;5.896;2023-01-15T07:00:41;6.70;99.90
56240;DHT22;42154;51.992;5.896;2023-01-15T07:03:10;6.80;99.90
56240;DHT22;42154;51.992;5.896;2023-01-15T07:05:39;6.80;99.90
56240;DHT22;42154;51.992;5.896;2023-01-15T07:08:05;6.80;99.90
56240;DHT22;42154;51.992;5.896;2023-01-15T07:10:33;6.80;99.90
56240;DHT22;42154;51.992;5.896;2023-01-15T07:12:59;6.80;99.90
56240;DHT22;42154;51.992;5.896;2023-01-15T07:15:25;6.80;99.90
56240;DHT22;42154;51.992;5.896;2023-01-15T07:17:55;6.70;99.90
56240;DHT22;42154;51.992;5.896;2023-01-15T07:20:21;6.60;99.90
56240;DHT22;42154;51.992;5.896;2023-01-15T07:22:51;6.60;99.90
56240;DHT22;42154;51.992;5.896;2023-01-15T07:25:17;6.50;99.90
56240;DHT22;42154;51.992;5.896;2023-01-15T07:27:45;6.50;99.90
56240;DHT22;42154;51.992;5.896;2023-01-15T07:30:12;6.40;99.90
56240;DHT22;42154;51.992;5.896;2023-01-15T07:32:37;6.40;99.90
56240;DHT22;42154;51.992;5.896;2023-01-15T07:35:03;6.30;99.90
56240;DHT22;42154;51.992;5.896;2023-01-15T07:37:29;6.30;99.90
56240;DHT22;42154;51.992;5.896;2023-01-15T07:39:55;6.30;99.90
56240;DHT22;42154;51.992;5.896;2023-01-15T07:42:22;6.30;99.90
56240;DHT22;42154;51.992;5.896;2023-01-15T07:45:08;6.40;99.90
56240;DHT22;42154;51.992;5.896;2023-01-15T07:47:53;6.30;99.90
56240;DHT22;42154;51.992;5.896;2023-01-15T07:50:38;6.30;99.90
56240;DHT22;42154;51.992;5.896;2023-01-15T07:53:03;6.30;99.90
56240;DHT22;42154;51.992;5.896;2023-01-15T07:55:29;6.20;99.90
56240;DHT22;42154;51.992;5.896;2023-01-15T07:57:55;6.30;99.90
56240;DHT22;42154;51.992;5.896;2023-01-15T08:00:23;6.20;99.90
56240;DHT22;42154;51.992;5.896;2023-01-15T08:02:49;6.20;99.90
56240;DHT22;42154;51.992;5.896;2023-01-15T08:05:17;6.20;99.90
56240;DHT22;42154;51.992;5.896;2023-01-15T08:07:44;6.10;99.90
56240;DHT22;42154;51.992;5.896;2023-01-15T08:10:11;6.10;99.90
56240;DHT22;42154;51.992;5.896;2023-01-15T08:12:37;6.10;99.90
56240;DHT22;42154;51.992;5.896;2023-01-15T08:15:21;6.20;99.90
56240;DHT22;42154;51.992;5.896;2023-01-15T08:17:49;6.10;99.90
56240;DHT22;42154;51.992;5.896;2023-01-15T08:20:23;6.10;99.90
56240;DHT22;42154;51.992;5.896;2023-01-15T08:22:49;6.10;99.90
56240;DHT22;42154;51.992;5.896;2023-01-15T08:25:18;6.10;99.90
56240;DHT22;42154;51.992;5.896;2023-01-15T08:27:44;6.10;99.90
56240;DHT22;42154;51.992;5.896;2023-01-15T08:30:13;6.10;99.90
56240;DHT22;42154;51.992;5.896;2023-01-15T08:32:39;6.10;99.90
56240;DHT22;42154;51.992;5.896;2023-01-15T08:35:06;6.10;99.90
56240;DHT22;42154;51.992;5.896;2023-01-15T08:37:31;6.10;99.90
56240;DHT22;42154;51.992;5.896;2023-01-15T08:39:57;6.10;99.90
56240;DHT22;42154;51.992;5.896;2023-01-15T08:42:23;6.20;99.90
56240;DHT22;42154;51.992;5.896;2023-01-15T08:44:49;6.20;99.90
56240;DHT22;42154;51.992;5.896;2023-01-15T08:47:16;6.20;99.90
56240;DHT22;42154;51.992;5.896;2023-01-15T08:49:42;6.30;99.90
56240;DHT22;42154;51.992;5.896;2023-01-15T08:52:07;6.30;99.90
56240;DHT22;42154;51.992;5.896;2023-01-15T08:54:33;6.30;99.90
56240;DHT22;42154;51.992;5.896;2023-01-15T08:56:59;6.30;99.90
56240;DHT22;42154;51.992;5.896;2023-01-15T08:59:25;6.40;99.90
56240;DHT22;42154;51.992;5.896;2023-01-15T09:01:51;6.40;99.90
56240;DHT22;42154;51.992;5.896;2023-01-15T09:04:18;6.40;99.90
56240;DHT22;42154;51.992;5.896;2023-01-15T09:06:46;6.40;99.90
56240;DHT22;42154;51.992;5.896;2023-01-15T09:09:12;6.40;99.90
56240;DHT22;42154;51.992;5.896;2023-01-15T09:11:38;6.40;99.90
56240;DHT22;42154;51.992;5.896;2023-01-15T09:14:10;6.40;99.90
56240;DHT22;42154;51.992;5.896;2023-01-15T09:16:36;6.40;99.90
56240;DHT22;42154;51.992;5.896;2023-01-15T09:19:04;6.40;99.90
56240;DHT22;42154;51.992;5.896;2023-01-15T09:21:30;6.50;99.90
56240;DHT22;42154;51.992;5.896;2023-01-15T09:23:56;6.40;99.90
56240;DHT22;42154;51.992;5.896;2023-01-15T09:26:36;6.50;99.90
56240;DHT22;42154;51.992;5.896;2023-01-15T09:29:03;6.50;99.90
56240;DHT22;42154;51.992;5.896;2023-01-15T09:31:29;6.50;99.90
56240;DHT22;42154;51.992;5.896;2023-01-15T09:33:56;6.60;99.90
56240;DHT22;42154;51.992;5.896;2023-01-15T09:36:27;6.60;99.90
56240;DHT22;42154;51.992;5.896;2023-01-15T09:38:55;6.60;99.90
56240;DHT22;42154;51.992;5.896;2023-01-15T09:41:22;6.70;99.90
56240;DHT22;42154;51.992;5.896;2023-01-15T09:47:17;6.70;99.90
56240;DHT22;42154;51.992;5.896;2023-01-15T09:50:09;6.80;99.90
56240;DHT22;42154;51.992;5.896;2023-01-15T09:55:15;6.80;99.90
56240;DHT22;42154;51.992;5.896;2023-01-15T09:57:44;6.80;99.90
56240;DHT22;42154;51.992;5.896;2023-01-15T10:00:36;6.90;99.90
56240;DHT22;42154;51.992;5.896;2023-01-15T10:03:04;6.90;99.90
56240;DHT22;42154;51.992;5.896;2023-01-15T10:05:35;6.90;99.90
56240;DHT22;42154;51.992;5.896;2023-01-15T10:08:18;7.00;99.90
56240;DHT22;42154;51.992;5.896;2023-01-15T10:10:47;7.10;99.90
56240;DHT22;42154;51.992;5.896;2023-01-15T10:13:38;7.10;99.90
56240;DHT22;42154;51.992;5.896;2023-01-15T10:16:08;7.10;99.90
56240;DHT22;42154;51.992;5.896;2023-01-15T10:18:35;7.10;99.90
56240;DHT22;42154;51.992;5.896;2023-01-15T10:24:11;7.20;99.90
56240;DHT22;42154;51.992;5.896;2023-01-15T10:37:52;7.40;99.90
56240;DHT22;42154;51.992;5.896;2023-01-15T10:40:50;7.40;99.90
56240;DHT22;42154;51.992;5.896;2023-01-15T10:46:15;7.50;99.90
56240;DHT22;42154;51.992;5.896;2023-01-15T10:48:50;7.60;99.90
56240;DHT22;42154;51.992;5.896;2023-01-15T10:51:41;7.70;99.90
56240;DHT22;42154;51.992;5.896;2023-01-15T10:54:28;7.70;99.90
56240;DHT22;42154;51.992;5.896;2023-01-15T11:01:53;7.90;99.90
56240;DHT22;42154;51.992;5.896;2023-01-15T11:04:20;8.00;99.90
56240;DHT22;42154;51.992;5.896;2023-01-15T11:06:46;8.00;99.90
56240;DHT22;42154;51.992;5.896;2023-01-15T11:09:22;8.00;99.90
56240;DHT22;42154;51.992;5.896;2023-01-15T11:11:51;8.00;99.90
56240;DHT22;42154;51.992;5.896;2023-01-15T11:14:39;8.10;99.90
56240;DHT22;42154;51.992;5.896;2023-01-15T11:17:30;8.10;99.90
56240;DHT22;42154;51.992;5.896;2023-01-15T11:22:43;8.10;99.90
56240;DHT22;42154;51.992;5.896;2023-01-15T11:25:10;8.20;99.90
56240;DHT22;42154;51.992;5.896;2023-01-15T11:27:36;8.20;99.90
56240;DHT22;42154;51.992;5.896;2023-01-15T11:30:23;8.20;99.90
56240;DHT22;42154;51.992;5.896;2023-01-15T11:32:54;8.20;99.90
56240;DHT22;42154;51.992;5.896;2023-01-15T11:35:21;8.30;99.90
56240;DHT22;42154;51.992;5.896;2023-01-15T11:37:47;8.30;99.90
56240;DHT22;42154;51.992;5.896;2023-01-15T11:40:18;8.30;99.90
56240;DHT22;42154;51.992;5.896;2023-01-15T11:42:46;8.30;99.90
56240;DHT22;42154;51.992;5.896;2023-01-15T11:45:30;8.30;99.90
56240;DHT22;42154;51.992;5.896;2023-01-15T11:48:21;8.30;99.90
56240;DHT22;42154;51.992;5.896;2023-01-15T11:51:08;8.30;99.90
56240;DHT22;42154;51.992;5.896;2023-01-15T11:53:43;8.20;99.90
56240;DHT22;42154;51.992;5.896;2023-01-15T11:56:23;8.20;99.90
56240;DHT22;42154;51.992;5.896;2023-01-15T11:58:53;8.10;99.90
56240;DHT22;42154;51.992;5.896;2023-01-15T12:01:31;8.20;99.90
56240;DHT22;42154;51.992;5.896;2023-01-15T12:04:00;8.00;99.90
56240;DHT22;42154;51.992;5.896;2023-01-15T12:06:27;7.90;99.90
56240;DHT22;42154;51.992;5.896;2023-01-15T12:09:14;7.80;99.90
56240;DHT22;42154;51.992;5.896;2023-01-15T12:15:07;7.80;99.90
56240;DHT22;42154;51.992;5.896;2023-01-15T12:17:58;7.80;99.90
56240;DHT22;42154;51.992;5.896;2023-01-15T12:28:16;7.90;99.90
56240;DHT22;42154;51.992;5.896;2023-01-15T12:31:00;8.00;99.90
56240;DHT22;42154;51.992;5.896;2023-01-15T12:33:53;8.00;99.90
56240;DHT22;42154;51.992;5.896;2023-01-15T12:36:21;8.10;99.90
56240;DHT22;42154;51.992;5.896;2023-01-15T12:41:36;8.00;99.90
56240;DHT22;42154;51.992;5.896;2023-01-15T12:44:31;8.00;99.90
56240;DHT22;42154;51.992;5.896;2023-01-15T12:47:27;7.90;99.90
56240;DHT22;42154;51.992;5.896;2023-01-15T12:52:45;7.80;99.90
56240;DHT22;42154;51.992;5.896;2023-01-15T12:55:15;7.70;99.90
56240;DHT22;42154;51.992;5.896;2023-01-15T12:57:47;7.70;99.90
56240;DHT22;42154;51.992;5.896;2023-01-15T13:00:19;7.70;99.90
56240;DHT22;42154;51.992;5.896;2023-01-15T13:05:46;7.60;99.90
56240;DHT22;42154;51.992;5.896;2023-01-15T13:08:20;7.50;99.90
56240;DHT22;42154;51.992;5.896;2023-01-15T13:10:49;7.60;99.90
56240;DHT22;42154;51.992;5.896;2023-01-15T13:13:24;7.60;99.90
56240;DHT22;42154;51.992;5.896;2023-01-15T13:19:04;7.70;99.90
56240;DHT22;42154;51.992;5.896;2023-01-15T13:21:35;7.70;99.90
56240;DHT22;42154;51.992;5.896;2023-01-15T13:30:02;7.70;99.90
56240;DHT22;42154;51.992;5.896;2023-01-15T13:32:33;7.70;99.90
56240;DHT22;42154;51.992;5.896;2023-01-15T13:35:21;7.70;99.90
56240;DHT22;42154;51.992;5.896;2023-01-15T13:37:50;7.80;99.90
56240;DHT22;42154;51.992;5.896;2023-01-15T13:40:30;7.70;99.90
56240;DHT22;42154;51.992;5.896;2023-01-15T13:43:01;7.70;99.90
56240;DHT22;42154;51.992;5.896;2023-01-15T13:48:01;7.70;99.90
56240;DHT22;42154;51.992;5.896;2023-01-15T13:50:34;7.70;99.90
56240;DHT22;42154;51.992;5.896;2023-01-15T13:53:08;7.70;99.90
56240;DHT22;42154;51.992;5.896;2023-01-15T13:55:41;7.70;99.90
56240;DHT22;42154;51.992;5.896;2023-01-15T13:58:25;7.70;99.90
56240;DHT22;42154;51.992;5.896;2023-01-15T14:01:24;7.70;99.90
56240;DHT22;42154;51.992;5.896;2023-01-15T14:06:47;7.60;99.90
56240;DHT22;42154;51.992;5.896;2023-01-15T14:09:34;7.60;99.90
56240;DHT22;42154;51.992;5.896;2023-01-15T14:26:14;7.40;99.90
56240;DHT22;42154;51.992;5.896;2023-01-15T14:31:16;7.30;99.90
56240;DHT22;42154;51.992;5.896;2023-01-15T14:36:38;7.40;99.90
56240;DHT22;42154;51.992;5.896;2023-01-15T14:39:17;7.40;99.90
56240;DHT22;42154;51.992;5.896;2023-01-15T14:41:45;7.30;99.90
56240;DHT22;42154;51.992;5.896;2023-01-15T14:44:32;7.30;99.90
56240;DHT22;42154;51.992;5.896;2023-01-15T14:47:03;7.30;99.90
56240;DHT22;42154;51.992;5.896;2023-01-15T14:49:42;7.30;99.90
56240;DHT22;42154;51.992;5.896;2023-01-15T14:52:19;7.30;99.90
56240;DHT22;42154;51.992;5.896;2023-01-15T14:54:46;7.20;99.90
56240;DHT22;42154;51.992;5.896;2023-01-15T14:57:13;7.20;99.90
56240;DHT22;42154;51.992;5.896;2023-01-15T14:59:48;7.20;99.90
56240;DHT22;42154;51.992;5.896;2023-01-15T15:02:23;7.20;99.90
56240;DHT22;42154;51.992;5.896;2023-01-15T15:04:57;7.30;99.90
56240;DHT22;42154;51.992;5.896;2023-01-15T15:07:26;7.30;99.90
56240;DHT22;42154;51.992;5.896;2023-01-15T15:10:12;7.40;99.90
56240;DHT22;42154;51.992;5.896;2023-01-15T15:15:22;7.50;99.90
56240;DHT22;42154;51.992;5.896;2023-01-15T15:26:34;7.40;99.90
56240;DHT22;42154;51.992;5.896;2023-01-15T15:29:10;7.30;99.90
56240;DHT22;42154;51.992;5.896;2023-01-15T15:31:40;7.20;99.90
56240;DHT22;42154;51.992;5.896;2023-01-15T15:34:11;7.10;99.90
56240;DHT22;42154;51.992;5.896;2023-01-15T15:36:40;7.00;99.90
56240;DHT22;42154;51.992;5.896;2023-01-15T15:41:51;6.90;99.90
56240;DHT22;42154;51.992;5.896;2023-01-15T15:44:52;6.80;99.90
56240;DHT22;42154;51.992;5.896;2023-01-15T15:47:40;6.80;99.90
56240;DHT22;42154;51.992;5.896;2023-01-15T15:50:32;6.70;99.90
56240;DHT22;42154;51.992;5.896;2023-01-15T15:52:59;6.70;99.90
56240;DHT22;42154;51.992;5.896;2023-01-15T15:55:41;6.70;99.90
56240;DHT22;42154;51.992;5.896;2023-01-15T15:58:33;6.70;99.90
56240;DHT22;42154;51.992;5.896;2023-01-15T16:01:00;6.80;99.90
56240;DHT22;42154;51.992;5.896;2023-01-15T16:03:28;6.80;99.90
56240;DHT22;42154;51.992;5.896;2023-01-15T16:06:00;6.80;99.90
56240;DHT22;42154;51.992;5.896;2023-01-15T16:08:27;6.80;99.90
56240;DHT22;42154;51.992;5.896;2023-01-15T16:10:56;6.90;99.90
56240;DHT22;42154;51.992;5.896;2023-01-15T16:13:24;6.90;99.90
56240;DHT22;42154;51.992;5.896;2023-01-15T16:15:52;7.00;99.90
56240;DHT22;42154;51.992;5.896;2023-01-15T16:18:33;7.00;99.90
56240;DHT22;42154;51.992;5.896;2023-01-15T16:20:59;7.10;99.90
56240;DHT22;42154;51.992;5.896;2023-01-15T16:23:29;7.10;99.90
56240;DHT22;42154;51.992;5.896;2023-01-15T16:26:14;7.10;99.90
56240;DHT22;42154;51.992;5.896;2023-01-15T16:28:53;7.10;99.90
56240;DHT22;42154;51.992;5.896;2023-01-15T16:31:21;7.10;99.90
56240;DHT22;42154;51.992;5.896;2023-01-15T16:33:53;7.10;99.90
56240;DHT22;42154;51.992;5.896;2023-01-15T16:36:21;7.20;99.90
56240;DHT22;42154;51.992;5.896;2023-01-15T16:38:49;7.20;99.90
56240;DHT22;42154;51.992;5.896;2023-01-15T16:41:24;7.20;99.90
56240;DHT22;42154;51.992;5.896;2023-01-15T16:43:55;7.20;99.90
56240;DHT22;42154;51.992;5.896;2023-01-15T16:46:23;7.20;99.90
56240;DHT22;42154;51.992;5.896;2023-01-15T16:51:49;7.30;99.90
56240;DHT22;42154;51.992;5.896;2023-01-15T16:56:59;7.30;99.90
56240;DHT22;42154;51.992;5.896;2023-01-15T17:01:51;7.30;99.90
56240;DHT22;42154;51.992;5.896;2023-01-15T17:09:21;7.20;99.90
56240;DHT22;42154;51.992;5.896;2023-01-15T17:11:50;7.20;99.90
56240;DHT22;42154;51.992;5.896;2023-01-15T17:16:45;7.20;99.90
56240;DHT22;42154;51.992;5.896;2023-01-15T17:19:11;7.20;99.90
56240;DHT22;42154;51.992;5.896;2023-01-15T17:21:37;7.20;99.90
56240;DHT22;42154;51.992;5.896;2023-01-15T17:24:07;7.20;99.90
56240;DHT22;42154;51.992;5.896;2023-01-15T17:26:34;7.20;99.90
56240;DHT22;42154;51.992;5.896;2023-01-15T17:29:00;7.20;99.90
56240;DHT22;42154;51.992;5.896;2023-01-15T17:31:30;7.10;99.90
56240;DHT22;42154;51.992;5.896;2023-01-15T17:34:01;7.20;99.90
56240;DHT22;42154;51.992;5.896;2023-01-15T17:36:28;7.20;99.90
56240;DHT22;42154;51.992;5.896;2023-01-15T17:38:54;7.10;99.90
56240;DHT22;42154;51.992;5.896;2023-01-15T17:41:22;7.10;99.90
56240;DHT22;42154;51.992;5.896;2023-01-15T17:43:48;7.10;99.90
56240;DHT22;42154;51.992;5.896;2023-01-15T17:46:14;7.10;99.90
56240;DHT22;42154;51.992;5.896;2023-01-15T17:48:41;7.10;99.90
56240;DHT22;42154;51.992;5.896;2023-01-15T17:51:11;7.00;99.90
56240;DHT22;42154;51.992;5.896;2023-01-15T17:53:37;7.00;99.90
56240;DHT22;42154;51.992;5.896;2023-01-15T17:56:03;7.00;99.90
56240;DHT22;42154;51.992;5.896;2023-01-15T17:58:48;6.90;99.90
56240;DHT22;42154;51.992;5.896;2023-01-15T18:01:38;6.80;99.90
56240;DHT22;42154;51.992;5.896;2023-01-15T18:04:28;6.70;99.90
56240;DHT22;42154;51.992;5.896;2023-01-15T18:07:14;6.70;99.90
56240;DHT22;42154;51.992;5.896;2023-01-15T18:09:42;6.50;99.90
56240;DHT22;42154;51.992;5.896;2023-01-15T18:12:08;6.60;99.90
56240;DHT22;42154;51.992;5.896;2023-01-15T18:14:34;6.50;99.90
56240;DHT22;42154;51.992;5.896;2023-01-15T18:17:01;6.60;99.90
56240;DHT22;42154;51.992;5.896;2023-01-15T18:19:27;6.60;99.90
56240;DHT22;42154;51.992;5.896;2023-01-15T18:21:53;6.60;99.90
56240;DHT22;42154;51.992;5.896;2023-01-15T18:24:19;6.60;99.90
56240;DHT22;42154;51.992;5.896;2023-01-15T18:26:47;6.60;99.90